sensor_id;sensor_type;location;lat;lon;timestamp;temperature;humidity
48978;DHT22;34793;48.940;2.618;2022-12-18T00:01:14;3.10;71.20
48978;DHT22;34793;48.940;2.618;2022-12-18T00:03:40;3.20;70.90
48978;DHT22;34793;48.940;2.618;2022-12-18T00:06:05;3.30;70.30
48978;DHT22;34793;48.940;2.618;2022-12-18T00:08:31;3.40;70.10
48978;DHT22;34793;48.940;2.618;2022-12-18T00:11:02;3.60;69.90
48978;DHT22;34793;48.940;2.618;2022-12-18T00:13:28;3.80;68.90
48978;DHT22;34793;48.940;2.618;2022-12-18T00:15:53;3.80;68.40
48978;DHT22;34793;48.940;2.618;2022-12-18T00:18:19;3.90;67.90
48978;DHT22;34793;48.940;2.618;2022-12-18T00:20:44;4.10;68.00
48978;DHT22;34793;48.940;2.618;2022-12-18T00:23:10;3.80;68.10
48978;DHT22;34793;48.940;2.618;2022-12-18T00:25:35;4.00;67.60
48978;DHT22;34793;48.940;2.618;2022-12-18T00:28:04;4.00;67.60
48978;DHT22;34793;48.940;2.618;2022-12-18T00:30:30;3.90;67.60
48978;DHT22;34793;48.940;2.618;2022-12-18T00:32:56;4.00;67.70
48978;DHT22;34793;48.940;2.618;2022-12-18T00:35:22;4.00;67.40
48978;DHT22;34793;48.940;2.618;2022-12-18T00:37:47;3.90;68.20
48978;DHT22;34793;48.940;2.618;2022-12-18T00:40:13;3.80;67.80
48978;DHT22;34793;48.940;2.618;2022-12-18T00:42:38;4.60;68.30
48978;DHT22;34793;48.940;2.618;2022-12-18T00:45:23;3.80;67.80
48978;DHT22;34793;48.940;2.618;2022-12-18T00:47:49;3.80;67.90
48978;DHT22;34793;48.940;2.618;2022-12-18T00:50:14;3.80;67.80
48978;DHT22;34793;48.940;2.618;2022-12-18T00:52:40;3.60;67.90
48978;DHT22;34793;48.940;2.618;2022-12-18T00:55:06;3.70;68.20
48978;DHT22;34793;48.940;2.618;2022-12-18T00:57:31;3.70;67.90
48978;DHT22;34793;48.940;2.618;2022-12-18T00:59:57;3.60;68.30
48978;DHT22;34793;48.940;2.618;2022-12-18T01:02:22;3.70;68.00
48978;DHT22;34793;48.940;2.618;2022-12-18T01:04:48;3.80;67.80
48978;DHT22;34793;48.940;2.618;2022-12-18T01:07:13;3.80;67.90
48978;DHT22;34793;48.940;2.618;2022-12-18T01:12:32;3.70;67.90
48978;DHT22;34793;48.940;2.618;2022-12-18T01:14:58;3.70;67.90
48978;DHT22;34793;48.940;2.618;2022-12-18T01:17:24;3.60;67.90
48978;DHT22;34793;48.940;2.618;2022-12-18T01:19:49;3.70;67.70
48978;DHT22;34793;48.940;2.618;2022-12-18T01:22:15;3.80;67.20
48978;DHT22;34793;48.940;2.618;2022-12-18T01:24:40;3.80;66.90
48978;DHT22;34793;48.940;2.618;2022-12-18T01:27:06;3.80;66.90
48978;DHT22;34793;48.940;2.618;2022-12-18T01:29:31;3.70;66.80
48978;DHT22;34793;48.940;2.618;2022-12-18T01:31:57;3.60;67.50
48978;DHT22;34793;48.940;2.618;2022-12-18T01:34:23;3.70;66.80
48978;DHT22;34793;48.940;2.618;2022-12-18T01:36:48;3.70;66.60
48978;DHT22;34793;48.940;2.618;2022-12-18T01:39:14;3.50;66.40
48978;DHT22;34793;48.940;2.618;2022-12-18T01:41:40;3.30;67.30
48978;DHT22;34793;48.940;2.618;2022-12-18T01:47:08;3.10;67.60
48978;DHT22;34793;48.940;2.618;2022-12-18T01:49:34;3.00;67.90
48978;DHT22;34793;48.940;2.618;2022-12-18T01:51:59;2.90;68.80
48978;DHT22;34793;48.940;2.618;2022-12-18T01:54:25;2.90;68.20
48978;DHT22;34793;48.940;2.618;2022-12-18T01:56:50;3.00;68.20
48978;DHT22;34793;48.940;2.618;2022-12-18T01:59:15;3.00;67.50
48978;DHT22;34793;48.940;2.618;2022-12-18T02:01:41;3.00;68.00
48978;DHT22;34793;48.940;2.618;2022-12-18T02:04:22;3.00;68.10
48978;DHT22;34793;48.940;2.618;2022-12-18T02:06:55;3.20;67.60
48978;DHT22;34793;48.940;2.618;2022-12-18T02:09:25;3.20;67.60
48978;DHT22;34793;48.940;2.618;2022-12-18T02:12:04;3.20;67.60
48978;DHT22;34793;48.940;2.618;2022-12-18T02:17:03;3.20;67.40
48978;DHT22;34793;48.940;2.618;2022-12-18T02:22:24;3.20;67.60
48978;DHT22;34793;48.940;2.618;2022-12-18T02:27:47;2.90;67.90
48978;DHT22;34793;48.940;2.618;2022-12-18T02:30:14;2.80;68.40
48978;DHT22;34793;48.940;2.618;2022-12-18T02:32:41;3.00;68.20
48978;DHT22;34793;48.940;2.618;2022-12-18T02:35:16;2.90;68.20
48978;DHT22;34793;48.940;2.618;2022-12-18T02:37:43;2.90;68.20
48978;DHT22;34793;48.940;2.618;2022-12-18T02:40:10;2.40;69.20
48978;DHT22;34793;48.940;2.618;2022-12-18T02:42:36;2.40;70.20
48978;DHT22;34793;48.940;2.618;2022-12-18T02:45:01;2.60;69.50
48978;DHT22;34793;48.940;2.618;2022-12-18T02:47:28;2.70;68.60
48978;DHT22;34793;48.940;2.618;2022-12-18T03:00:03;2.60;69.10
48978;DHT22;34793;48.940;2.618;2022-12-18T03:02:37;2.70;69.40
48978;DHT22;34793;48.940;2.618;2022-12-18T03:07:33;2.60;69.30
48978;DHT22;34793;48.940;2.618;2022-12-18T03:09:59;2.60;69.30
48978;DHT22;34793;48.940;2.618;2022-12-18T03:12:35;2.70;68.90
48978;DHT22;34793;48.940;2.618;2022-12-18T03:15:04;2.80;68.70
48978;DHT22;34793;48.940;2.618;2022-12-18T03:17:33;2.80;68.70
48978;DHT22;34793;48.940;2.618;2022-12-18T03:20:02;2.90;68.80
48978;DHT22;34793;48.940;2.618;2022-12-18T03:22:29;2.50;69.70
48978;DHT22;34793;48.940;2.618;2022-12-18T03:24:55;2.20;70.00
48978;DHT22;34793;48.940;2.618;2022-12-18T03:27:22;2.50;70.20
48978;DHT22;34793;48.940;2.618;2022-12-18T03:29:52;2.20;70.10
48978;DHT22;34793;48.940;2.618;2022-12-18T03:32:21;2.10;70.20
48978;DHT22;34793;48.940;2.618;2022-12-18T03:34:49;2.30;70.10
48978;DHT22;34793;48.940;2.618;2022-12-18T03:37:16;2.60;69.50
48978;DHT22;34793;48.940;2.618;2022-12-18T03:39:41;2.70;69.00
48978;DHT22;34793;48.940;2.618;2022-12-18T03:42:08;2.70;68.70
48978;DHT22;34793;48.940;2.618;2022-12-18T03:49:36;3.00;68.30
48978;DHT22;34793;48.940;2.618;2022-12-18T03:54:48;3.00;68.50
48978;DHT22;34793;48.940;2.618;2022-12-18T03:57:15;2.80;69.20
48978;DHT22;34793;48.940;2.618;2022-12-18T03:59:42;2.80;69.40
48978;DHT22;34793;48.940;2.618;2022-12-18T04:02:08;2.70;69.90
48978;DHT22;34793;48.940;2.618;2022-12-18T04:04:34;2.50;70.20
48978;DHT22;34793;48.940;2.618;2022-12-18T04:07:01;2.60;70.00
48978;DHT22;34793;48.940;2.618;2022-12-18T04:09:27;2.60;70.30
48978;DHT22;34793;48.940;2.618;2022-12-18T04:11:52;2.40;70.90
48978;DHT22;34793;48.940;2.618;2022-12-18T04:14:18;2.30;70.70
48978;DHT22;34793;48.940;2.618;2022-12-18T04:16:43;2.40;71.00
48978;DHT22;34793;48.940;2.618;2022-12-18T04:19:09;2.30;71.00
48978;DHT22;34793;48.940;2.618;2022-12-18T04:21:34;2.20;71.50
48978;DHT22;34793;48.940;2.618;2022-12-18T04:24:00;2.40;71.10
48978;DHT22;34793;48.940;2.618;2022-12-18T04:26:25;2.40;70.00
48978;DHT22;34793;48.940;2.618;2022-12-18T04:28:51;2.50;69.60
48978;DHT22;34793;48.940;2.618;2022-12-18T04:31:16;2.40;69.70
48978;DHT22;34793;48.940;2.618;2022-12-18T04:33:42;2.50;69.80
48978;DHT22;34793;48.940;2.618;2022-12-18T04:36:07;2.70;69.20
48978;DHT22;34793;48.940;2.618;2022-12-18T04:38:32;2.70;69.40
48978;DHT22;34793;48.940;2.618;2022-12-18T04:40:58;2.60;69.60
48978;DHT22;34793;48.940;2.618;2022-12-18T04:43:23;2.60;69.20
48978;DHT22;34793;48.940;2.618;2022-12-18T04:45:49;2.60;69.60
48978;DHT22;34793;48.940;2.618;2022-12-18T04:48:14;2.60;70.30
48978;DHT22;34793;48.940;2.618;2022-12-18T04:50:40;2.80;69.60
48978;DHT22;34793;48.940;2.618;2022-12-18T04:53:05;2.70;69.50
48978;DHT22;34793;48.940;2.618;2022-12-18T04:55:31;2.70;69.70
48978;DHT22;34793;48.940;2.618;2022-12-18T04:57:56;2.70;70.30
48978;DHT22;34793;48.940;2.618;2022-12-18T05:00:22;2.50;70.60
48978;DHT22;34793;48.940;2.618;2022-12-18T05:02:47;2.70;70.40
48978;DHT22;34793;48.940;2.618;2022-12-18T05:05:13;2.40;71.00
48978;DHT22;34793;48.940;2.618;2022-12-18T05:07:38;2.60;71.00
48978;DHT22;34793;48.940;2.618;2022-12-18T05:10:04;2.60;70.30
48978;DHT22;34793;48.940;2.618;2022-12-18T05:12:30;2.50;70.50
48978;DHT22;34793;48.940;2.618;2022-12-18T05:14:56;2.40;71.00
48978;DHT22;34793;48.940;2.618;2022-12-18T05:17:21;2.40;70.50
48978;DHT22;34793;48.940;2.618;2022-12-18T05:19:47;2.50;70.00
48978;DHT22;34793;48.940;2.618;2022-12-18T05:22:12;2.50;69.60
48978;DHT22;34793;48.940;2.618;2022-12-18T05:24:38;2.60;69.40
48978;DHT22;34793;48.940;2.618;2022-12-18T05:27:03;2.70;68.90
48978;DHT22;34793;48.940;2.618;2022-12-18T05:29:29;2.40;69.90
48978;DHT22;34793;48.940;2.618;2022-12-18T05:31:54;2.30;70.20
48978;DHT22;34793;48.940;2.618;2022-12-18T05:34:20;2.10;70.60
48978;DHT22;34793;48.940;2.618;2022-12-18T05:36:45;2.10;71.00
48978;DHT22;34793;48.940;2.618;2022-12-18T05:39:10;2.20;70.90
48978;DHT22;34793;48.940;2.618;2022-12-18T05:41:38;2.30;70.70
48978;DHT22;34793;48.940;2.618;2022-12-18T05:44:03;2.40;70.00
48978;DHT22;34793;48.940;2.618;2022-12-18T05:46:29;2.40;70.20
48978;DHT22;34793;48.940;2.618;2022-12-18T05:48:54;2.60;69.70
48978;DHT22;34793;48.940;2.618;2022-12-18T05:51:20;2.50;69.40
48978;DHT22;34793;48.940;2.618;2022-12-18T05:53:46;2.40;69.60
48978;DHT22;34793;48.940;2.618;2022-12-18T05:56:13;2.40;69.20
48978;DHT22;34793;48.940;2.618;2022-12-18T05:58:39;2.60;69.50
48978;DHT22;34793;48.940;2.618;2022-12-18T06:01:09;2.80;68.90
48978;DHT22;34793;48.940;2.618;2022-12-18T06:03:35;2.40;69.90
48978;DHT22;34793;48.940;2.618;2022-12-18T06:06:33;2.50;70.10
48978;DHT22;34793;48.940;2.618;2022-12-18T06:08:52;2.50;70.20
48978;DHT22;34793;48.940;2.618;2022-12-18T06:11:19;2.50;70.20
48978;DHT22;34793;48.940;2.618;2022-12-18T06:13:45;2.40;71.30
48978;DHT22;34793;48.940;2.618;2022-12-18T06:16:10;2.20;71.50
48978;DHT22;34793;48.940;2.618;2022-12-18T06:18:35;2.30;71.40
48978;DHT22;34793;48.940;2.618;2022-12-18T06:21:01;2.40;71.40
48978;DHT22;34793;48.940;2.618;2022-12-18T06:23:27;2.40;71.30
48978;DHT22;34793;48.940;2.618;2022-12-18T06:25:52;2.40;71.60
48978;DHT22;34793;48.940;2.618;2022-12-18T06:28:18;2.30;71.80
48978;DHT22;34793;48.940;2.618;2022-12-18T06:30:44;2.30;71.80
48978;DHT22;34793;48.940;2.618;2022-12-18T06:33:10;2.30;71.80
48978;DHT22;34793;48.940;2.618;2022-12-18T06:35:35;2.50;71.50
48978;DHT22;34793;48.940;2.618;2022-12-18T06:38:01;2.40;71.70
48978;DHT22;34793;48.940;2.618;2022-12-18T06:40:26;2.30;71.80
48978;DHT22;34793;48.940;2.618;2022-12-18T06:42:52;2.30;71.90
48978;DHT22;34793;48.940;2.618;2022-12-18T06:45:17;2.50;71.70
48978;DHT22;34793;48.940;2.618;2022-12-18T06:47:43;2.40;72.30
48978;DHT22;34793;48.940;2.618;2022-12-18T06:50:08;2.50;71.40
48978;DHT22;34793;48.940;2.618;2022-12-18T06:52:34;2.60;71.40
48978;DHT22;34793;48.940;2.618;2022-12-18T06:55:00;2.70;70.90
48978;DHT22;34793;48.940;2.618;2022-12-18T06:57:25;2.70;71.30
48978;DHT22;34793;48.940;2.618;2022-12-18T06:59:51;2.80;70.30
48978;DHT22;34793;48.940;2.618;2022-12-18T07:02:16;3.00;69.40
48978;DHT22;34793;48.940;2.618;2022-12-18T07:04:42;2.70;69.60
48978;DHT22;34793;48.940;2.618;2022-12-18T07:07:08;2.70;69.80
48978;DHT22;34793;48.940;2.618;2022-12-18T07:09:33;2.70;69.60
48978;DHT22;34793;48.940;2.618;2022-12-18T07:11:59;2.70;69.50
48978;DHT22;34793;48.940;2.618;2022-12-18T07:14:24;2.60;69.30
48978;DHT22;34793;48.940;2.618;2022-12-18T07:16:50;2.80;69.70
48978;DHT22;34793;48.940;2.618;2022-12-18T07:19:15;2.60;69.40
48978;DHT22;34793;48.940;2.618;2022-12-18T07:21:41;2.50;70.10
48978;DHT22;34793;48.940;2.618;2022-12-18T07:24:06;2.50;70.30
48978;DHT22;34793;48.940;2.618;2022-12-18T07:26:32;2.20;71.50
48978;DHT22;34793;48.940;2.618;2022-12-18T07:28:57;2.30;71.30
48978;DHT22;34793;48.940;2.618;2022-12-18T07:31:23;2.40;71.30
48978;DHT22;34793;48.940;2.618;2022-12-18T07:33:50;2.60;70.90
48978;DHT22;34793;48.940;2.618;2022-12-18T07:36:15;2.60;70.60
48978;DHT22;34793;48.940;2.618;2022-12-18T07:38:41;2.70;70.50
48978;DHT22;34793;48.940;2.618;2022-12-18T07:41:08;2.60;70.50
48978;DHT22;34793;48.940;2.618;2022-12-18T07:43:34;2.60;70.90
48978;DHT22;34793;48.940;2.618;2022-12-18T07:46:00;2.00;73.70
48978;DHT22;34793;48.940;2.618;2022-12-18T07:48:25;1.60;75.70
48978;DHT22;34793;48.940;2.618;2022-12-18T07:50:52;1.60;76.50
48978;DHT22;34793;48.940;2.618;2022-12-18T07:53:17;1.60;76.90
48978;DHT22;34793;48.940;2.618;2022-12-18T07:55:43;1.60;76.30
48978;DHT22;34793;48.940;2.618;2022-12-18T07:58:08;1.80;75.40
48978;DHT22;34793;48.940;2.618;2022-12-18T08:00:34;2.20;74.80
48978;DHT22;34793;48.940;2.618;2022-12-18T08:03:00;1.90;75.90
48978;DHT22;34793;48.940;2.618;2022-12-18T08:05:25;1.80;76.40
48978;DHT22;34793;48.940;2.618;2022-12-18T08:07:51;1.80;76.90
48978;DHT22;34793;48.940;2.618;2022-12-18T08:10:16;1.50;78.00
48978;DHT22;34793;48.940;2.618;2022-12-18T08:12:42;1.40;78.60
48978;DHT22;34793;48.940;2.618;2022-12-18T08:15:07;1.60;78.10
48978;DHT22;34793;48.940;2.618;2022-12-18T08:17:33;1.20;79.30
48978;DHT22;34793;48.940;2.618;2022-12-18T08:19:58;1.30;79.80
48978;DHT22;34793;48.940;2.618;2022-12-18T08:22:24;0.90;80.60
48978;DHT22;34793;48.940;2.618;2022-12-18T08:24:49;1.00;81.10
48978;DHT22;34793;48.940;2.618;2022-12-18T08:27:15;1.20;80.40
48978;DHT22;34793;48.940;2.618;2022-12-18T08:29:40;1.40;79.70
48978;DHT22;34793;48.940;2.618;2022-12-18T08:32:06;1.60;79.20
48978;DHT22;34793;48.940;2.618;2022-12-18T08:34:32;1.80;78.10
48978;DHT22;34793;48.940;2.618;2022-12-18T08:36:57;2.10;77.70
48978;DHT22;34793;48.940;2.618;2022-12-18T08:39:22;2.30;76.80
48978;DHT22;34793;48.940;2.618;2022-12-18T08:41:48;2.20;76.70
48978;DHT22;34793;48.940;2.618;2022-12-18T08:44:33;2.20;77.60
48978;DHT22;34793;48.940;2.618;2022-12-18T08:47:06;2.20;76.80
48978;DHT22;34793;48.940;2.618;2022-12-18T08:49:32;2.40;76.80
48978;DHT22;34793;48.940;2.618;2022-12-18T08:51:58;2.40;76.40
48978;DHT22;34793;48.940;2.618;2022-12-18T08:54:23;2.50;76.00
48978;DHT22;34793;48.940;2.618;2022-12-18T08:56:49;2.40;76.90
48978;DHT22;34793;48.940;2.618;2022-12-18T08:59:15;2.20;77.00
48978;DHT22;34793;48.940;2.618;2022-12-18T09:01:41;2.10;78.10
48978;DHT22;34793;48.940;2.618;2022-12-18T09:04:07;2.20;78.30
48978;DHT22;34793;48.940;2.618;2022-12-18T09:06:32;2.20;78.20
48978;DHT22;34793;48.940;2.618;2022-12-18T09:08:58;2.30;78.40
48978;DHT22;34793;48.940;2.618;2022-12-18T09:11:24;2.60;77.10
48978;DHT22;34793;48.940;2.618;2022-12-18T09:13:50;2.40;77.80
48978;DHT22;34793;48.940;2.618;2022-12-18T09:16:16;2.50;78.10
48978;DHT22;34793;48.940;2.618;2022-12-18T09:18:42;2.30;77.70
48978;DHT22;34793;48.940;2.618;2022-12-18T09:21:11;2.40;78.20
48978;DHT22;34793;48.940;2.618;2022-12-18T09:23:37;2.50;77.90
48978;DHT22;34793;48.940;2.618;2022-12-18T09:26:02;2.40;78.30
48978;DHT22;34793;48.940;2.618;2022-12-18T09:28:28;2.60;78.10
48978;DHT22;34793;48.940;2.618;2022-12-18T09:30:53;2.70;77.90
48978;DHT22;34793;48.940;2.618;2022-12-18T09:33:19;2.50;78.20
48978;DHT22;34793;48.940;2.618;2022-12-18T09:35:45;2.80;77.50
48978;DHT22;34793;48.940;2.618;2022-12-18T09:38:11;2.80;78.20
48978;DHT22;34793;48.940;2.618;2022-12-18T09:40:44;2.60;77.20
48978;DHT22;34793;48.940;2.618;2022-12-18T09:43:57;2.20;79.50
48978;DHT22;34793;48.940;2.618;2022-12-18T09:46:00;2.40;79.60
48978;DHT22;34793;48.940;2.618;2022-12-18T09:48:36;2.40;79.90
48978;DHT22;34793;48.940;2.618;2022-12-18T09:51:14;2.60;79.50
48978;DHT22;34793;48.940;2.618;2022-12-18T09:53:40;2.60;78.50
48978;DHT22;34793;48.940;2.618;2022-12-18T09:56:06;2.20;80.30
48978;DHT22;34793;48.940;2.618;2022-12-18T09:58:39;2.50;80.40
48978;DHT22;34793;48.940;2.618;2022-12-18T10:01:09;2.60;80.50
48978;DHT22;34793;48.940;2.618;2022-12-18T10:03:35;2.50;79.60
48978;DHT22;34793;48.940;2.618;2022-12-18T10:06:06;2.60;81.10
48978;DHT22;34793;48.940;2.618;2022-12-18T10:08:36;2.80;80.00
48978;DHT22;34793;48.940;2.618;2022-12-18T10:11:19;3.30;79.50
48978;DHT22;34793;48.940;2.618;2022-12-18T10:13:46;3.50;77.50
48978;DHT22;34793;48.940;2.618;2022-12-18T10:16:25;3.60;76.70
48978;DHT22;34793;48.940;2.618;2022-12-18T10:21:32;3.10;80.20
48978;DHT22;34793;48.940;2.618;2022-12-18T10:26:40;3.20;79.40
48978;DHT22;34793;48.940;2.618;2022-12-18T10:29:13;3.20;79.40
48978;DHT22;34793;48.940;2.618;2022-12-18T10:31:40;3.30;80.40
48978;DHT22;34793;48.940;2.618;2022-12-18T10:34:12;3.70;78.70
48978;DHT22;34793;48.940;2.618;2022-12-18T10:36:37;3.80;78.10
48978;DHT22;34793;48.940;2.618;2022-12-18T10:41:41;3.40;79.70
48978;DHT22;34793;48.940;2.618;2022-12-18T10:44:17;3.40;79.10
48978;DHT22;34793;48.940;2.618;2022-12-18T10:46:44;3.30;80.30
48978;DHT22;34793;48.940;2.618;2022-12-18T10:49:21;3.70;79.90
48978;DHT22;34793;48.940;2.618;2022-12-18T10:51:47;3.50;78.30
48978;DHT22;34793;48.940;2.618;2022-12-18T10:54:21;3.80;79.70
48978;DHT22;34793;48.940;2.618;2022-12-18T10:56:46;4.00;79.10
48978;DHT22;34793;48.940;2.618;2022-12-18T10:59:13;4.20;78.60
48978;DHT22;34793;48.940;2.618;2022-12-18T11:04:30;4.30;77.50
48978;DHT22;34793;48.940;2.618;2022-12-18T11:06:57;3.80;78.90
48978;DHT22;34793;48.940;2.618;2022-12-18T11:09:27;4.00;80.10
48978;DHT22;34793;48.940;2.618;2022-12-18T11:11:57;4.00;77.90
48978;DHT22;34793;48.940;2.618;2022-12-18T11:14:29;3.70;79.00
48978;DHT22;34793;48.940;2.618;2022-12-18T11:16:56;3.70;80.40
48978;DHT22;34793;48.940;2.618;2022-12-18T11:21:50;4.00;79.30
48978;DHT22;34793;48.940;2.618;2022-12-18T11:24:19;4.40;80.50
48978;DHT22;34793;48.940;2.618;2022-12-18T11:26:45;4.80;78.50
48978;DHT22;34793;48.940;2.618;2022-12-18T11:29:15;4.70;77.20
48978;DHT22;34793;48.940;2.618;2022-12-18T11:31:42;4.70;78.80
48978;DHT22;34793;48.940;2.618;2022-12-18T11:34:20;4.90;78.30
48978;DHT22;34793;48.940;2.618;2022-12-18T11:36:47;5.10;77.30
48978;DHT22;34793;48.940;2.618;2022-12-18T11:41:52;5.40;75.90
48978;DHT22;34793;48.940;2.618;2022-12-18T11:44:39;5.70;75.80
48978;DHT22;34793;48.940;2.618;2022-12-18T11:47:13;6.10;75.20
48978;DHT22;34793;48.940;2.618;2022-12-18T11:49:41;6.50;75.20
48978;DHT22;34793;48.940;2.618;2022-12-18T11:52:15;6.60;74.10
48978;DHT22;34793;48.940;2.618;2022-12-18T11:54:41;6.30;73.10
48978;DHT22;34793;48.940;2.618;2022-12-18T12:04:52;5.80;74.20
48978;DHT22;34793;48.940;2.618;2022-12-18T12:10:10;5.70;76.50
48978;DHT22;34793;48.940;2.618;2022-12-18T12:12:57;5.60;74.20
48978;DHT22;34793;48.940;2.618;2022-12-18T12:15:30;5.40;75.80
48978;DHT22;34793;48.940;2.618;2022-12-18T12:18:17;5.60;75.90
48978;DHT22;34793;48.940;2.618;2022-12-18T12:23:15;6.30;75.10
48978;DHT22;34793;48.940;2.618;2022-12-18T12:25:50;6.50;74.30
48978;DHT22;34793;48.940;2.618;2022-12-18T12:38:19;6.90;73.50
48978;DHT22;34793;48.940;2.618;2022-12-18T12:43:21;6.80;71.80
48978;DHT22;34793;48.940;2.618;2022-12-18T12:45:58;6.70;71.70
48978;DHT22;34793;48.940;2.618;2022-12-18T12:50:58;6.20;74.20
48978;DHT22;34793;48.940;2.618;2022-12-18T12:53:26;6.40;72.70
48978;DHT22;34793;48.940;2.618;2022-12-18T12:55:54;6.40;74.30
48978;DHT22;34793;48.940;2.618;2022-12-18T12:58:26;6.50;73.30
48978;DHT22;34793;48.940;2.618;2022-12-18T13:08:56;6.40;74.30
48978;DHT22;34793;48.940;2.618;2022-12-18T13:11:30;6.60;73.00
48978;DHT22;34793;48.940;2.618;2022-12-18T13:14:26;6.80;72.90
48978;DHT22;34793;48.940;2.618;2022-12-18T13:17:09;6.60;73.30
48978;DHT22;34793;48.940;2.618;2022-12-18T13:19:38;6.70;72.20
48978;DHT22;34793;48.940;2.618;2022-12-18T13:22:03;7.10;72.40
48978;DHT22;34793;48.940;2.618;2022-12-18T13:24:30;7.30;70.70
48978;DHT22;34793;48.940;2.618;2022-12-18T13:26:55;7.40;70.90
48978;DHT22;34793;48.940;2.618;2022-12-18T13:32:15;7.70;70.50
48978;DHT22;34793;48.940;2.618;2022-12-18T13:34:44;7.70;69.80
48978;DHT22;34793;48.940;2.618;2022-12-18T13:39:53;6.90;72.20
48978;DHT22;34793;48.940;2.618;2022-12-18T13:42:36;6.90;71.70
48978;DHT22;34793;48.940;2.618;2022-12-18T13:45:42;6.70;71.90
48978;DHT22;34793;48.940;2.618;2022-12-18T13:48:26;6.60;73.20
48978;DHT22;34793;48.940;2.618;2022-12-18T13:51:13;7.20;72.20
48978;DHT22;34793;48.940;2.618;2022-12-18T13:53:43;7.50;71.10
48978;DHT22;34793;48.940;2.618;2022-12-18T13:56:09;7.20;71.70
48978;DHT22;34793;48.940;2.618;2022-12-18T13:58:40;7.20;72.00
48978;DHT22;34793;48.940;2.618;2022-12-18T14:01:12;7.60;70.90
48978;DHT22;34793;48.940;2.618;2022-12-18T14:03:41;7.80;71.20
48978;DHT22;34793;48.940;2.618;2022-12-18T14:06:07;7.70;71.00
48978;DHT22;34793;48.940;2.618;2022-12-18T14:08:40;7.70;71.00
48978;DHT22;34793;48.940;2.618;2022-12-18T14:11:06;8.20;70.50
48978;DHT22;34793;48.940;2.618;2022-12-18T14:13:33;8.30;68.90
48978;DHT22;34793;48.940;2.618;2022-12-18T14:16:01;8.00;70.00
48978;DHT22;34793;48.940;2.618;2022-12-18T14:21:03;8.20;69.50
48978;DHT22;34793;48.940;2.618;2022-12-18T14:25:54;8.60;69.40
48978;DHT22;34793;48.940;2.618;2022-12-18T14:28:20;8.80;69.10
48978;DHT22;34793;48.940;2.618;2022-12-18T14:30:47;8.70;69.80
48978;DHT22;34793;48.940;2.618;2022-12-18T14:33:14;8.80;69.40
48978;DHT22;34793;48.940;2.618;2022-12-18T14:35:51;8.90;69.10
48978;DHT22;34793;48.940;2.618;2022-12-18T14:40:46;9.00;68.50
48978;DHT22;34793;48.940;2.618;2022-12-18T14:43:12;8.80;68.50
48978;DHT22;34793;48.940;2.618;2022-12-18T14:45:44;8.70;69.00
48978;DHT22;34793;48.940;2.618;2022-12-18T14:50:36;9.10;68.90
48978;DHT22;34793;48.940;2.618;2022-12-18T14:53:02;9.00;69.50
48978;DHT22;34793;48.940;2.618;2022-12-18T14:55:28;8.90;69.30
48978;DHT22;34793;48.940;2.618;2022-12-18T14:57:54;9.20;69.20
48978;DHT22;34793;48.940;2.618;2022-12-18T15:00:21;9.30;68.70
48978;DHT22;34793;48.940;2.618;2022-12-18T15:02:48;9.40;68.60
48978;DHT22;34793;48.940;2.618;2022-12-18T15:05:19;9.40;68.60
48978;DHT22;34793;48.940;2.618;2022-12-18T15:07:48;9.40;68.30
48978;DHT22;34793;48.940;2.618;2022-12-18T15:10:15;9.20;68.20
48978;DHT22;34793;48.940;2.618;2022-12-18T15:12:42;9.20;68.60
48978;DHT22;34793;48.940;2.618;2022-12-18T15:17:56;9.10;69.00
48978;DHT22;34793;48.940;2.618;2022-12-18T15:20:22;9.30;69.00
48978;DHT22;34793;48.940;2.618;2022-12-18T15:22:47;9.20;68.70
48978;DHT22;34793;48.940;2.618;2022-12-18T15:25:55;8.90;69.80
48978;DHT22;34793;48.940;2.618;2022-12-18T15:28:02;8.90;69.80
48978;DHT22;34793;48.940;2.618;2022-12-18T15:30:28;8.90;70.20
48978;DHT22;34793;48.940;2.618;2022-12-18T15:33:15;9.10;69.30
48978;DHT22;34793;48.940;2.618;2022-12-18T15:35:39;9.20;70.50
48978;DHT22;34793;48.940;2.618;2022-12-18T15:38:06;8.90;70.00
48978;DHT22;34793;48.940;2.618;2022-12-18T15:40:31;9.10;69.90
48978;DHT22;34793;48.940;2.618;2022-12-18T15:42:58;9.20;69.80
48978;DHT22;34793;48.940;2.618;2022-12-18T15:45:42;9.30;69.60
48978;DHT22;34793;48.940;2.618;2022-12-18T15:48:26;9.10;69.80
48978;DHT22;34793;48.940;2.618;2022-12-18T15:50:52;9.10;70.00
48978;DHT22;34793;48.940;2.618;2022-12-18T15:53:18;9.00;70.40
48978;DHT22;34793;48.940;2.618;2022-12-18T15:55:44;9.20;70.10
48978;DHT22;34793;48.940;2.618;2022-12-18T15:58:28;8.90;70.80
48978;DHT22;34793;48.940;2.618;2022-12-18T16:00:54;9.00;70.40
48978;DHT22;34793;48.940;2.618;2022-12-18T16:03:20;8.70;70.80
48978;DHT22;34793;48.940;2.618;2022-12-18T16:05:47;8.60;71.40
48978;DHT22;34793;48.940;2.618;2022-12-18T16:08:12;8.40;72.00
48978;DHT22;34793;48.940;2.618;2022-12-18T16:10:38;8.60;72.00
48978;DHT22;34793;48.940;2.618;2022-12-18T16:13:03;8.60;71.10
48978;DHT22;34793;48.940;2.618;2022-12-18T16:15:29;8.10;72.20
48978;DHT22;34793;48.940;2.618;2022-12-18T16:17:54;7.80;73.60
48978;DHT22;34793;48.940;2.618;2022-12-18T16:20:20;7.70;74.10
48978;DHT22;34793;48.940;2.618;2022-12-18T16:22:47;7.60;74.20
48978;DHT22;34793;48.940;2.618;2022-12-18T16:27:41;7.50;75.20
48978;DHT22;34793;48.940;2.618;2022-12-18T16:32:57;7.90;74.00
48978;DHT22;34793;48.940;2.618;2022-12-18T16:35:23;7.80;73.90
48978;DHT22;34793;48.940;2.618;2022-12-18T16:37:49;7.90;74.70
48978;DHT22;34793;48.940;2.618;2022-12-18T16:40:15;8.20;74.10
48978;DHT22;34793;48.940;2.618;2022-12-18T16:42:42;8.30;73.50
48978;DHT22;34793;48.940;2.618;2022-12-18T16:45:09;8.40;73.00
48978;DHT22;34793;48.940;2.618;2022-12-18T16:47:35;8.30;73.80
48978;DHT22;34793;48.940;2.618;2022-12-18T16:50:00;8.30;74.30
48978;DHT22;34793;48.940;2.618;2022-12-18T16:52:26;8.30;73.40
48978;DHT22;34793;48.940;2.618;2022-12-18T16:54:52;8.60;72.80
48978;DHT22;34793;48.940;2.618;2022-12-18T16:57:18;8.90;72.30
48978;DHT22;34793;48.940;2.618;2022-12-18T16:59:44;9.00;72.00
48978;DHT22;34793;48.940;2.618;2022-12-18T17:02:13;9.30;71.50
48978;DHT22;34793;48.940;2.618;2022-12-18T17:04:40;9.10;72.30
48978;DHT22;34793;48.940;2.618;2022-12-18T17:07:06;9.10;72.30
48978;DHT22;34793;48.940;2.618;2022-12-18T17:09:32;8.90;72.60
48978;DHT22;34793;48.940;2.618;2022-12-18T17:11:57;8.80;72.90
48978;DHT22;34793;48.940;2.618;2022-12-18T17:14:24;8.50;73.80
48978;DHT22;34793;48.940;2.618;2022-12-18T17:16:50;8.80;73.70
48978;DHT22;34793;48.940;2.618;2022-12-18T17:19:16;8.90;73.40
48978;DHT22;34793;48.940;2.618;2022-12-18T17:21:42;9.00;73.40
48978;DHT22;34793;48.940;2.618;2022-12-18T17:24:08;9.00;73.00
48978;DHT22;34793;48.940;2.618;2022-12-18T17:26:33;9.20;72.40
48978;DHT22;34793;48.940;2.618;2022-12-18T17:28:59;8.80;73.40
48978;DHT22;34793;48.940;2.618;2022-12-18T17:31:25;8.70;74.00
48978;DHT22;34793;48.940;2.618;2022-12-18T17:33:51;8.60;74.70
48978;DHT22;34793;48.940;2.618;2022-12-18T17:36:18;8.70;74.90
48978;DHT22;34793;48.940;2.618;2022-12-18T17:38:48;8.60;75.20